sensor_id;sensor_type;location;lat;lon;timestamp;P1;durP1;ratioP1;P2;durP2;ratioP2
28920;SDS011;16035;53.594;9.952;2022-08-01T00:00:41;9.77;;;6.87;;
28920;SDS011;16035;53.594;9.952;2022-08-01T00:02:42;10.80;;;6.47;;
28920;SDS011;16035;53.594;9.952;2022-08-01T00:04:42;10.67;;;6.17;;
28920;SDS011;16035;53.594;9.952;2022-08-01T00:06:43;8.27;;;6.50;;
28920;SDS011;16035;53.594;9.952;2022-08-01T00:08:43;8.50;;;6.37;;
28920;SDS011;16035;53.594;9.952;2022-08-01T00:10:43;8.50;;;6.10;;
28920;SDS011;16035;53.594;9.952;2022-08-01T00:12:44;7.90;;;6.07;;
28920;SDS011;16035;53.594;9.952;2022-08-01T00:14:45;9.75;;;5.70;;
28920;SDS011;16035;53.594;9.952;2022-08-01T00:16:45;9.80;;;5.87;;
28920;SDS011;16035;53.594;9.952;2022-08-01T00:18:45;7.33;;;5.47;;
28920;SDS011;16035;53.594;9.952;2022-08-01T00:20:46;8.13;;;5.57;;
28920;SDS011;16035;53.594;9.952;2022-08-01T00:22:46;8.10;;;5.17;;
28920;SDS011;16035;53.594;9.952;2022-08-01T00:24:46;7.43;;;5.53;;
28920;SDS011;16035;53.594;9.952;2022-08-01T00:26:47;6.30;;;5.07;;
28920;SDS011;16035;53.594;9.952;2022-08-01T00:28:47;6.67;;;5.23;;
28920;SDS011;16035;53.594;9.952;2022-08-01T00:30:47;9.77;;;6.40;;
28920;SDS011;16035;53.594;9.952;2022-08-01T00:32:48;8.20;;;5.90;;
28920;SDS011;16035;53.594;9.952;2022-08-01T00:34:48;9.53;;;5.97;;
28920;SDS011;16035;53.594;9.952;2022-08-01T00:36:49;10.33;;;6.53;;
28920;SDS011;16035;53.594;9.952;2022-08-01T00:38:49;8.73;;;5.73;;
28920;SDS011;16035;53.594;9.952;2022-08-01T00:40:49;9.77;;;6.53;;
28920;SDS011;16035;53.594;9.952;2022-08-01T00:42:50;8.13;;;5.70;;
28920;SDS011;16035;53.594;9.952;2022-08-01T00:44:50;7.90;;;5.53;;
28920;SDS011;16035;53.594;9.952;2022-08-01T00:46:51;10.03;;;6.60;;
28920;SDS011;16035;53.594;9.952;2022-08-01T00:48:51;10.43;;;6.40;;
28920;SDS011;16035;53.594;9.952;2022-08-01T00:50:51;9.67;;;6.33;;
28920;SDS011;16035;53.594;9.952;2022-08-01T00:52:52;8.77;;;5.50;;
28920;SDS011;16035;53.594;9.952;2022-08-01T00:54:53;11.95;;;6.75;;
28920;SDS011;16035;53.594;9.952;2022-08-01T00:56:54;10.93;;;6.67;;
28920;SDS011;16035;53.594;9.952;2022-08-01T00:58:55;10.98;;;6.30;;
28920;SDS011;16035;53.594;9.952;2022-08-01T01:00:55;6.00;;;4.72;;
28920;SDS011;16035;53.594;9.952;2022-08-01T01:02:55;9.00;;;5.47;;
28920;SDS011;16035;53.594;9.952;2022-08-01T01:04:56;7.57;;;5.37;;
28920;SDS011;16035;53.594;9.952;2022-08-01T01:07:00;7.68;;;4.90;;
28920;SDS011;16035;53.594;9.952;2022-08-01T01:12:00;8.32;;;5.55;;
28920;SDS011;16035;53.594;9.952;2022-08-01T01:14:08;7.90;;;5.07;;
28920;SDS011;16035;53.594;9.952;2022-08-01T01:16:14;6.80;;;4.82;;
28920;SDS011;16035;53.594;9.952;2022-08-01T01:18:20;10.80;;;5.60;;
28920;SDS011;16035;53.594;9.952;2022-08-01T01:20:26;7.45;;;5.30;;
28920;SDS011;16035;53.594;9.952;2022-08-01T01:22:50;10.10;;;5.07;;
28920;SDS011;16035;53.594;9.952;2022-08-01T01:27:57;8.65;;;5.30;;
28920;SDS011;16035;53.594;9.952;2022-08-01T01:30:21;11.20;;;5.70;;
28920;SDS011;16035;53.594;9.952;2022-08-01T01:34:39;8.95;;;5.28;;
28920;SDS011;16035;53.594;9.952;2022-08-01T01:36:43;19.38;;;6.53;;
28920;SDS011;16035;53.594;9.952;2022-08-01T01:38:45;9.88;;;6.32;;
28920;SDS011;16035;53.594;9.952;2022-08-01T01:40:49;9.00;;;5.97;;
28920;SDS011;16035;53.594;9.952;2022-08-01T01:42:51;11.50;;;6.20;;
28920;SDS011;16035;53.594;9.952;2022-08-01T01:44:55;12.75;;;6.43;;
28920;SDS011;16035;53.594;9.952;2022-08-01T01:48:59;12.65;;;6.35;;
28920;SDS011;16035;53.594;9.952;2022-08-01T01:51:01;7.53;;;5.88;;
28920;SDS011;16035;53.594;9.952;2022-08-01T01:53:02;10.38;;;5.63;;
28920;SDS011;16035;53.594;9.952;2022-08-01T01:55:05;9.82;;;6.95;;
28920;SDS011;16035;53.594;9.952;2022-08-01T01:57:08;9.10;;;5.95;;
28920;SDS011;16035;53.594;9.952;2022-08-01T01:59:09;8.77;;;5.05;;
28920;SDS011;16035;53.594;9.952;2022-08-01T02:01:10;7.80;;;6.13;;
28920;SDS011;16035;53.594;9.952;2022-08-01T02:05:12;14.83;;;6.40;;
28920;SDS011;16035;53.594;9.952;2022-08-01T02:09:16;8.05;;;5.40;;
28920;SDS011;16035;53.594;9.952;2022-08-01T02:11:19;11.40;;;5.82;;
28920;SDS011;16035;53.594;9.952;2022-08-01T02:13:21;10.48;;;6.53;;
28920;SDS011;16035;53.594;9.952;2022-08-01T02:15:22;7.45;;;5.18;;
28920;SDS011;16035;53.594;9.952;2022-08-01T02:17:23;7.85;;;5.82;;
28920;SDS011;16035;53.594;9.952;2022-08-01T02:19:25;9.70;;;6.80;;
28920;SDS011;16035;53.594;9.952;2022-08-01T02:21:36;9.97;;;6.30;;
28920;SDS011;16035;53.594;9.952;2022-08-01T02:23:44;8.75;;;5.85;;
28920;SDS011;16035;53.594;9.952;2022-08-01T02:25:46;9.97;;;5.83;;
28920;SDS011;16035;53.594;9.952;2022-08-01T02:27:52;7.85;;;5.75;;
28920;SDS011;16035;53.594;9.952;2022-08-01T02:30:07;8.02;;;5.60;;
28920;SDS011;16035;53.594;9.952;2022-08-01T02:32:20;8.05;;;5.55;;
28920;SDS011;16035;53.594;9.952;2022-08-01T02:34:25;13.52;;;6.05;;
28920;SDS011;16035;53.594;9.952;2022-08-01T02:36:34;12.65;;;5.40;;
28920;SDS011;16035;53.594;9.952;2022-08-01T02:38:37;10.13;;;5.05;;
28920;SDS011;16035;53.594;9.952;2022-08-01T02:40:42;10.00;;;5.22;;
28920;SDS011;16035;53.594;9.952;2022-08-01T02:42:47;6.20;;;4.07;;
28920;SDS011;16035;53.594;9.952;2022-08-01T02:44:50;6.78;;;4.57;;
28920;SDS011;16035;53.594;9.952;2022-08-01T02:49:02;11.18;;;5.00;;
28920;SDS011;16035;53.594;9.952;2022-08-01T02:51:05;5.65;;;4.43;;
28920;SDS011;16035;53.594;9.952;2022-08-01T02:53:08;5.55;;;3.72;;
28920;SDS011;16035;53.594;9.952;2022-08-01T02:55:12;6.75;;;4.57;;
28920;SDS011;16035;53.594;9.952;2022-08-01T02:57:13;6.15;;;4.20;;
28920;SDS011;16035;53.594;9.952;2022-08-01T02:59:16;5.95;;;3.78;;
28920;SDS011;16035;53.594;9.952;2022-08-01T03:01:18;9.70;;;4.43;;
28920;SDS011;16035;53.594;9.952;2022-08-01T03:03:21;5.00;;;3.78;;
28920;SDS011;16035;53.594;9.952;2022-08-01T03:05:22;7.25;;;4.50;;
28920;SDS011;16035;53.594;9.952;2022-08-01T03:07:25;6.85;;;3.70;;
28920;SDS011;16035;53.594;9.952;2022-08-01T03:09:27;6.75;;;4.13;;
28920;SDS011;16035;53.594;9.952;2022-08-01T03:11:30;5.35;;;3.90;;
28920;SDS011;16035;53.594;9.952;2022-08-01T03:13:32;8.32;;;4.47;;
28920;SDS011;16035;53.594;9.952;2022-08-01T03:15:33;8.10;;;4.32;;
28920;SDS011;16035;53.594;9.952;2022-08-01T03:17:37;7.10;;;3.95;;
28920;SDS011;16035;53.594;9.952;2022-08-01T03:19:40;4.78;;;3.83;;
28920;SDS011;16035;53.594;9.952;2022-08-01T03:21:44;8.90;;;3.88;;
28920;SDS011;16035;53.594;9.952;2022-08-01T03:23:46;7.47;;;3.72;;
28920;SDS011;16035;53.594;9.952;2022-08-01T03:25:49;9.75;;;5.05;;
28920;SDS011;16035;53.594;9.952;2022-08-01T03:27:54;6.88;;;3.80;;
28920;SDS011;16035;53.594;9.952;2022-08-01T03:29:56;8.85;;;4.07;;
28920;SDS011;16035;53.594;9.952;2022-08-01T03:31:58;9.60;;;4.20;;
28920;SDS011;16035;53.594;9.952;2022-08-01T03:34:00;9.60;;;4.90;;
28920;SDS011;16035;53.594;9.952;2022-08-01T03:36:01;7.90;;;4.10;;
28920;SDS011;16035;53.594;9.952;2022-08-01T03:38:03;10.18;;;4.78;;
28920;SDS011;16035;53.594;9.952;2022-08-01T03:40:24;9.93;;;4.35;;
28920;SDS011;16035;53.594;9.952;2022-08-01T03:42:32;5.63;;;4.38;;
28920;SDS011;16035;53.594;9.952;2022-08-01T03:44:37;12.90;;;4.95;;
28920;SDS011;16035;53.594;9.952;2022-08-01T03:46:43;5.50;;;4.15;;
28920;SDS011;16035;53.594;9.952;2022-08-01T03:48:47;10.35;;;4.35;;
28920;SDS011;16035;53.594;9.952;2022-08-01T03:50:50;7.53;;;4.03;;
28920;SDS011;16035;53.594;9.952;2022-08-01T03:52:52;10.73;;;4.35;;
28920;SDS011;16035;53.594;9.952;2022-08-01T03:54:55;6.22;;;4.22;;
28920;SDS011;16035;53.594;9.952;2022-08-01T03:56:57;6.22;;;3.33;;
28920;SDS011;16035;53.594;9.952;2022-08-01T03:58:59;4.07;;;3.20;;
28920;SDS011;16035;53.594;9.952;2022-08-01T04:01:01;6.97;;;3.70;;
28920;SDS011;16035;53.594;9.952;2022-08-01T04:03:02;4.50;;;3.65;;
28920;SDS011;16035;53.594;9.952;2022-08-01T04:05:03;3.72;;;2.85;;
28920;SDS011;16035;53.594;9.952;2022-08-01T04:07:03;7.65;;;3.45;;
28920;SDS011;16035;53.594;9.952;2022-08-01T04:09:06;5.47;;;3.10;;
28920;SDS011;16035;53.594;9.952;2022-08-01T04:11:07;3.13;;;2.80;;
28920;SDS011;16035;53.594;9.952;2022-08-01T04:13:09;4.10;;;3.08;;
28920;SDS011;16035;53.594;9.952;2022-08-01T04:15:09;6.67;;;3.27;;
28920;SDS011;16035;53.594;9.952;2022-08-01T04:17:10;4.20;;;3.10;;
28920;SDS011;16035;53.594;9.952;2022-08-01T04:19:10;7.57;;;3.60;;
28920;SDS011;16035;53.594;9.952;2022-08-01T04:21:11;6.23;;;3.03;;
28920;SDS011;16035;53.594;9.952;2022-08-01T04:23:12;4.80;;;3.35;;
28920;SDS011;16035;53.594;9.952;2022-08-01T04:25:21;6.50;;;3.75;;
28920;SDS011;16035;53.594;9.952;2022-08-01T04:27:28;7.30;;;3.40;;
28920;SDS011;16035;53.594;9.952;2022-08-01T04:29:31;3.45;;;3.10;;
28920;SDS011;16035;53.594;9.952;2022-08-01T04:31:32;6.25;;;3.67;;
28920;SDS011;16035;53.594;9.952;2022-08-01T04:33:35;7.70;;;2.90;;
28920;SDS011;16035;53.594;9.952;2022-08-01T04:35:36;4.57;;;2.50;;
28920;SDS011;16035;53.594;9.952;2022-08-01T04:37:40;6.43;;;2.60;;
28920;SDS011;16035;53.594;9.952;2022-08-01T04:39:44;3.97;;;2.72;;
28920;SDS011;16035;53.594;9.952;2022-08-01T04:41:46;2.33;;;1.73;;
28920;SDS011;16035;53.594;9.952;2022-08-01T04:43:47;5.50;;;2.60;;
28920;SDS011;16035;53.594;9.952;2022-08-01T04:45:47;3.60;;;2.33;;
28920;SDS011;16035;53.594;9.952;2022-08-01T04:47:50;4.53;;;2.25;;
28920;SDS011;16035;53.594;9.952;2022-08-01T04:49:52;3.00;;;2.20;;
28920;SDS011;16035;53.594;9.952;2022-08-01T04:51:54;2.88;;;2.03;;
28920;SDS011;16035;53.594;9.952;2022-08-01T04:54:00;4.35;;;2.03;;
28920;SDS011;16035;53.594;9.952;2022-08-01T04:56:01;4.38;;;1.80;;
28920;SDS011;16035;53.594;9.952;2022-08-01T04:58:01;3.60;;;2.43;;
28920;SDS011;16035;53.594;9.952;2022-08-01T05:00:03;2.70;;;1.80;;
28920;SDS011;16035;53.594;9.952;2022-08-01T05:02:04;5.18;;;2.35;;
28920;SDS011;16035;53.594;9.952;2022-08-01T05:04:04;1.87;;;1.43;;
28920;SDS011;16035;53.594;9.952;2022-08-01T05:06:04;3.93;;;1.90;;
28920;SDS011;16035;53.594;9.952;2022-08-01T05:08:05;2.72;;;1.80;;
28920;SDS011;16035;53.594;9.952;2022-08-01T05:10:06;2.13;;;1.57;;
28920;SDS011;16035;53.594;9.952;2022-08-01T05:12:06;1.30;;;1.20;;
28920;SDS011;16035;53.594;9.952;2022-08-01T05:14:07;1.60;;;1.10;;
28920;SDS011;16035;53.594;9.952;2022-08-01T05:16:08;1.13;;;0.97;;
28920;SDS011;16035;53.594;9.952;2022-08-01T05:18:08;1.83;;;1.10;;
28920;SDS011;16035;53.594;9.952;2022-08-01T05:20:10;1.42;;;1.10;;
28920;SDS011;16035;53.594;9.952;2022-08-01T05:22:11;1.83;;;1.42;;
28920;SDS011;16035;53.594;9.952;2022-08-01T05:24:11;2.87;;;0.97;;
28920;SDS011;16035;53.594;9.952;2022-08-01T05:26:12;3.65;;;1.17;;
28920;SDS011;16035;53.594;9.952;2022-08-01T05:28:13;4.13;;;1.38;;
28920;SDS011;16035;53.594;9.952;2022-08-01T05:30:14;2.73;;;1.27;;
28920;SDS011;16035;53.594;9.952;2022-08-01T05:32:14;2.33;;;1.70;;
28920;SDS011;16035;53.594;9.952;2022-08-01T05:34:15;2.10;;;1.90;;
28920;SDS011;16035;53.594;9.952;2022-08-01T05:36:16;3.03;;;1.55;;
28920;SDS011;16035;53.594;9.952;2022-08-01T05:38:16;4.20;;;2.10;;
28920;SDS011;16035;53.594;9.952;2022-08-01T05:40:16;2.30;;;2.10;;
28920;SDS011;16035;53.594;9.952;2022-08-01T05:42:17;2.97;;;2.27;;
28920;SDS011;16035;53.594;9.952;2022-08-01T05:44:17;4.37;;;2.23;;
28920;SDS011;16035;53.594;9.952;2022-08-01T05:46:17;2.87;;;2.57;;
28920;SDS011;16035;53.594;9.952;2022-08-01T05:48:18;4.53;;;2.47;;
28920;SDS011;16035;53.594;9.952;2022-08-01T05:50:18;5.67;;;2.80;;
28920;SDS011;16035;53.594;9.952;2022-08-01T05:52:18;5.90;;;2.33;;
28920;SDS011;16035;53.594;9.952;2022-08-01T05:54:19;4.17;;;2.53;;
28920;SDS011;16035;53.594;9.952;2022-08-01T05:56:19;5.60;;;2.67;;
28920;SDS011;16035;53.594;9.952;2022-08-01T05:58:22;4.85;;;2.30;;
28920;SDS011;16035;53.594;9.952;2022-08-01T06:00:22;4.00;;;2.93;;
28920;SDS011;16035;53.594;9.952;2022-08-01T06:02:23;7.67;;;3.37;;
28920;SDS011;16035;53.594;9.952;2022-08-01T06:04:23;5.97;;;3.90;;
28920;SDS011;16035;53.594;9.952;2022-08-01T06:06:23;6.93;;;4.33;;
28920;SDS011;16035;53.594;9.952;2022-08-01T06:08:24;6.50;;;4.63;;
28920;SDS011;16035;53.594;9.952;2022-08-01T06:10:24;7.00;;;5.03;;
28920;SDS011;16035;53.594;9.952;2022-08-01T06:12:25;8.57;;;5.00;;
28920;SDS011;16035;53.594;9.952;2022-08-01T06:14:25;7.87;;;5.03;;
28920;SDS011;16035;53.594;9.952;2022-08-01T06:16:25;8.27;;;4.23;;
28920;SDS011;16035;53.594;9.952;2022-08-01T06:18:26;7.73;;;4.60;;
28920;SDS011;16035;53.594;9.952;2022-08-01T06:20:26;7.53;;;3.40;;
28920;SDS011;16035;53.594;9.952;2022-08-01T06:22:26;6.67;;;3.47;;
28920;SDS011;16035;53.594;9.952;2022-08-01T06:24:27;5.57;;;3.47;;
28920;SDS011;16035;53.594;9.952;2022-08-01T06:26:27;7.80;;;3.00;;
28920;SDS011;16035;53.594;9.952;2022-08-01T06:28:28;8.77;;;3.90;;
28920;SDS011;16035;53.594;9.952;2022-08-01T06:30:29;6.95;;;3.90;;
28920;SDS011;16035;53.594;9.952;2022-08-01T06:32:29;7.30;;;4.33;;
28920;SDS011;16035;53.594;9.952;2022-08-01T06:34:30;6.38;;;4.60;;
28920;SDS011;16035;53.594;9.952;2022-08-01T06:36:31;5.70;;;4.23;;
28920;SDS011;16035;53.594;9.952;2022-08-01T06:38:31;11.83;;;4.60;;
28920;SDS011;16035;53.594;9.952;2022-08-01T06:40:32;8.07;;;4.37;;
28920;SDS011;16035;53.594;9.952;2022-08-01T06:42:32;11.77;;;4.57;;
28920;SDS011;16035;53.594;9.952;2022-08-01T06:44:35;8.40;;;4.97;;
28920;SDS011;16035;53.594;9.952;2022-08-01T06:46:35;10.47;;;4.50;;
28920;SDS011;16035;53.594;9.952;2022-08-01T06:48:36;9.53;;;4.73;;
28920;SDS011;16035;53.594;9.952;2022-08-01T06:50:39;12.98;;;4.65;;
28920;SDS011;16035;53.594;9.952;2022-08-01T06:52:40;10.97;;;4.80;;
28920;SDS011;16035;53.594;9.952;2022-08-01T06:54:41;10.30;;;4.30;;
28920;SDS011;16035;53.594;9.952;2022-08-01T06:56:42;6.77;;;3.77;;
28920;SDS011;16035;53.594;9.952;2022-08-01T06:58:43;10.68;;;4.45;;
28920;SDS011;16035;53.594;9.952;2022-08-01T07:00:43;9.57;;;4.27;;
28920;SDS011;16035;53.594;9.952;2022-08-01T07:02:44;8.93;;;3.70;;
28920;SDS011;16035;53.594;9.952;2022-08-01T07:04:45;13.05;;;4.25;;
28920;SDS011;16035;53.594;9.952;2022-08-01T07:06:45;8.93;;;3.63;;
28920;SDS011;16035;53.594;9.952;2022-08-01T07:08:45;10.83;;;3.90;;
28920;SDS011;16035;53.594;9.952;2022-08-01T07:10:46;4.97;;;3.43;;
28920;SDS011;16035;53.594;9.952;2022-08-01T07:12:50;10.70;;;3.78;;
28920;SDS011;16035;53.594;9.952;2022-08-01T07:14:53;6.93;;;4.10;;
28920;SDS011;16035;53.594;9.952;2022-08-01T07:16:54;6.80;;;3.93;;
28920;SDS011;16035;53.594;9.952;2022-08-01T07:18:54;8.70;;;4.90;;
28920;SDS011;16035;53.594;9.952;2022-08-01T07:20:54;7.40;;;4.47;;
28920;SDS011;16035;53.594;9.952;2022-08-01T07:22:55;11.93;;;4.90;;
28920;SDS011;16035;53.594;9.952;2022-08-01T07:24:55;16.47;;;4.93;;
28920;SDS011;16035;53.594;9.952;2022-08-01T07:26:55;9.07;;;4.27;;
28920;SDS011;16035;53.594;9.952;2022-08-01T07:28:57;13.95;;;5.47;;
28920;SDS011;16035;53.594;9.952;2022-08-01T07:30:58;6.87;;;4.73;;
28920;SDS011;16035;53.594;9.952;2022-08-01T07:32:58;12.57;;;5.20;;
28920;SDS011;16035;53.594;9.952;2022-08-01T07:34:58;15.43;;;5.17;;
28920;SDS011;16035;53.594;9.952;2022-08-01T07:36:59;13.73;;;5.53;;
28920;SDS011;16035;53.594;9.952;2022-08-01T07:38:59;16.67;;;5.67;;
28920;SDS011;16035;53.594;9.952;2022-08-01T07:40:59;10.30;;;4.50;;
28920;SDS011;16035;53.594;9.952;2022-08-01T07:43:00;14.20;;;4.80;;
28920;SDS011;16035;53.594;9.952;2022-08-01T07:45:00;9.10;;;3.37;;
28920;SDS011;16035;53.594;9.952;2022-08-01T07:47:01;18.83;;;3.83;;
28920;SDS011;16035;53.594;9.952;2022-08-01T07:49:01;13.97;;;4.17;;
28920;SDS011;16035;53.594;9.952;2022-08-01T07:51:01;8.80;;;3.00;;
28920;SDS011;16035;53.594;9.952;2022-08-01T07:53:02;12.50;;;3.13;;
28920;SDS011;16035;53.594;9.952;2022-08-01T07:57:04;14.03;;;2.60;;
28920;SDS011;16035;53.594;9.952;2022-08-01T07:59:04;14.57;;;4.10;;
28920;SDS011;16035;53.594;9.952;2022-08-01T08:01:05;8.47;;;2.40;;
28920;SDS011;16035;53.594;9.952;2022-08-01T08:03:05;8.30;;;1.90;;
28920;SDS011;16035;53.594;9.952;2022-08-01T08:05:05;7.93;;;2.37;;
28920;SDS011;16035;53.594;9.952;2022-08-01T08:07:07;8.43;;;1.88;;
28920;SDS011;16035;53.594;9.952;2022-08-01T08:09:07;4.53;;;1.53;;
28920;SDS011;16035;53.594;9.952;2022-08-01T08:11:07;3.83;;;1.63;;
28920;SDS011;16035;53.594;9.952;2022-08-01T08:13:08;3.47;;;1.70;;
28920;SDS011;16035;53.594;9.952;2022-08-01T08:15:08;9.73;;;2.47;;
28920;SDS011;16035;53.594;9.952;2022-08-01T08:17:09;8.43;;;1.85;;
28920;SDS011;16035;53.594;9.952;2022-08-01T08:19:10;4.87;;;1.70;;
28920;SDS011;16035;53.594;9.952;2022-08-01T08:21:10;4.00;;;1.90;;
28920;SDS011;16035;53.594;9.952;2022-08-01T08:23:11;5.23;;;1.30;;
28920;SDS011;16035;53.594;9.952;2022-08-01T08:25:30;5.70;;;1.30;;
28920;SDS011;16035;53.594;9.952;2022-08-01T08:27:30;7.73;;;1.57;;
28920;SDS011;16035;53.594;9.952;2022-08-01T08:29:31;12.27;;;1.73;;
28920;SDS011;16035;53.594;9.952;2022-08-01T08:31:32;11.35;;;2.45;;
28920;SDS011;16035;53.594;9.952;2022-08-01T08:33:32;10.63;;;1.97;;
28920;SDS011;16035;53.594;9.952;2022-08-01T08:35:33;7.40;;;1.53;;
28920;SDS011;16035;53.594;9.952;2022-08-01T08:37:33;6.37;;;1.80;;
28920;SDS011;16035;53.594;9.952;2022-08-01T08:39:35;4.15;;;1.45;;
28920;SDS011;16035;53.594;9.952;2022-08-01T08:41:35;8.47;;;2.07;;
28920;SDS011;16035;53.594;9.952;2022-08-01T08:43:36;6.97;;;1.50;;
28920;SDS011;16035;53.594;9.952;2022-08-01T08:45:36;10.87;;;1.67;;
28920;SDS011;16035;53.594;9.952;2022-08-01T08:47:37;5.68;;;1.58;;
28920;SDS011;16035;53.594;9.952;2022-08-01T08:49:38;5.90;;;1.35;;
28920;SDS011;16035;53.594;9.952;2022-08-01T08:51:47;8.57;;;1.40;;
28920;SDS011;16035;53.594;9.952;2022-08-01T08:53:50;9.82;;;1.38;;
28920;SDS011;16035;53.594;9.952;2022-08-01T08:55:54;4.97;;;1.48;;
28920;SDS011;16035;53.594;9.952;2022-08-01T08:57:57;7.43;;;1.95;;
28920;SDS011;16035;53.594;9.952;2022-08-01T08:59:59;6.20;;;1.50;;
28920;SDS011;16035;53.594;9.952;2022-08-01T09:02:02;6.65;;;1.70;;
28920;SDS011;16035;53.594;9.952;2022-08-01T09:04:04;5.05;;;1.10;;
28920;SDS011;16035;53.594;9.952;2022-08-01T09:06:05;10.10;;;1.98;;
28920;SDS011;16035;53.594;9.952;2022-08-01T09:08:07;6.38;;;1.27;;
28920;SDS011;16035;53.594;9.952;2022-08-01T09:12:09;6.30;;;1.13;;
28920;SDS011;16035;53.594;9.952;2022-08-01T09:16:15;5.85;;;2.10;;
28920;SDS011;16035;53.594;9.952;2022-08-01T09:18:36;5.38;;;1.17;;
28920;SDS011;16035;53.594;9.952;2022-08-01T09:20:42;6.85;;;1.42;;
28920;SDS011;16035;53.594;9.952;2022-08-01T09:22:43;7.70;;;1.17;;
28920;SDS011;16035;53.594;9.952;2022-08-01T09:24:56;13.53;;;1.87;;
28920;SDS011;16035;53.594;9.952;2022-08-01T09:27:16;6.03;;;1.20;;
28920;SDS011;16035;53.594;9.952;2022-08-01T09:29:24;5.50;;;1.58;;
28920;SDS011;16035;53.594;9.952;2022-08-01T09:31:27;5.20;;;1.45;;
28920;SDS011;16035;53.594;9.952;2022-08-01T09:33:46;7.93;;;1.52;;
28920;SDS011;16035;53.594;9.952;2022-08-01T09:35:54;6.95;;;1.40;;
28920;SDS011;16035;53.594;9.952;2022-08-01T09:40:19;5.82;;;1.77;;
28920;SDS011;16035;53.594;9.952;2022-08-01T09:42:23;7.47;;;2.00;;
28920;SDS011;16035;53.594;9.952;2022-08-01T09:44:44;6.45;;;1.17;;
28920;SDS011;16035;53.594;9.952;2022-08-01T09:46:48;3.72;;;1.27;;
28920;SDS011;16035;53.594;9.952;2022-08-01T09:48:54;4.07;;;1.30;;
28920;SDS011;16035;53.594;9.952;2022-08-01T09:50:57;8.30;;;1.83;;
28920;SDS011;16035;53.594;9.952;2022-08-01T09:52:58;8.25;;;2.00;;
28920;SDS011;16035;53.594;9.952;2022-08-01T09:55:03;8.47;;;1.83;;
28920;SDS011;16035;53.594;9.952;2022-08-01T09:59:13;7.20;;;1.50;;
28920;SDS011;16035;53.594;9.952;2022-08-01T10:01:14;5.80;;;1.58;;
28920;SDS011;16035;53.594;9.952;2022-08-01T10:03:21;7.27;;;2.17;;
28920;SDS011;16035;53.594;9.952;2022-08-01T10:05:31;5.68;;;1.67;;
28920;SDS011;16035;53.594;9.952;2022-08-01T10:07:34;7.72;;;2.00;;
28920;SDS011;16035;53.594;9.952;2022-08-01T10:11:55;6.20;;;1.50;;
28920;SDS011;16035;53.594;9.952;2022-08-01T10:13:56;5.75;;;1.83;;
28920;SDS011;16035;53.594;9.952;2022-08-01T10:16:00;5.32;;;1.45;;
28920;SDS011;16035;53.594;9.952;2022-08-01T10:18:02;8.35;;;1.60;;
28920;SDS011;16035;53.594;9.952;2022-08-01T10:20:06;13.35;;;2.13;;
28920;SDS011;16035;53.594;9.952;2022-08-01T10:22:08;4.95;;;1.42;;
28920;SDS011;16035;53.594;9.952;2022-08-01T10:24:09;5.60;;;1.30;;
28920;SDS011;16035;53.594;9.952;2022-08-01T10:26:12;5.82;;;1.20;;
28920;SDS011;16035;53.594;9.952;2022-08-01T10:28:14;8.10;;;1.42;;
28920;SDS011;16035;53.594;9.952;2022-08-01T10:30:18;5.78;;;1.10;;
28920;SDS011;16035;53.594;9.952;2022-08-01T10:32:19;6.30;;;1.35;;
28920;SDS011;16035;53.594;9.952;2022-08-01T10:34:20;8.75;;;1.52;;
28920;SDS011;16035;53.594;9.952;2022-08-01T10:36:21;12.50;;;1.60;;
28920;SDS011;16035;53.594;9.952;2022-08-01T10:38:23;4.55;;;1.38;;
28920;SDS011;16035;53.594;9.952;2022-08-01T10:40:23;6.82;;;1.60;;
28920;SDS011;16035;53.594;9.952;2022-08-01T10:42:24;7.45;;;1.55;;
28920;SDS011;16035;53.594;9.952;2022-08-01T10:44:25;5.28;;;1.08;;
28920;SDS011;16035;53.594;9.952;2022-08-01T10:46:26;6.25;;;1.52;;
28920;SDS011;16035;53.594;9.952;2022-08-01T10:50:41;3.10;;;1.20;;
28920;SDS011;16035;53.594;9.952;2022-08-01T10:55:09;9.27;;;1.55;;
28920;SDS011;16035;53.594;9.952;2022-08-01T10:57:10;5.05;;;1.48;;
28920;SDS011;16035;53.594;9.952;2022-08-01T10:59:14;6.45;;;1.35;;
28920;SDS011;16035;53.594;9.952;2022-08-01T11:01:26;3.85;;;1.25;;
28920;SDS011;16035;53.594;9.952;2022-08-01T11:03:34;5.43;;;1.33;;
28920;SDS011;16035;53.594;9.952;2022-08-01T11:05:35;8.13;;;1.50;;
28920;SDS011;16035;53.594;9.952;2022-08-01T11:07:43;3.58;;;1.23;;
28920;SDS011;16035;53.594;9.952;2022-08-01T11:09:49;3.70;;;1.40;;
28920;SDS011;16035;53.594;9.952;2022-08-01T11:14:08;5.28;;;1.27;;
28920;SDS011;16035;53.594;9.952;2022-08-01T11:16:25;5.55;;;1.08;;
28920;SDS011;16035;53.594;9.952;2022-08-01T11:22:40;4.43;;;1.30;;
28920;SDS011;16035;53.594;9.952;2022-08-01T11:25:04;8.93;;;1.25;;
28920;SDS011;16035;53.594;9.952;2022-08-01T11:27:18;3.50;;;1.05;;
28920;SDS011;16035;53.594;9.952;2022-08-01T11:29:18;3.67;;;0.95;;
28920;SDS011;16035;53.594;9.952;2022-08-01T11:33:19;5.50;;;0.97;;
28920;SDS011;16035;53.594;9.952;2022-08-01T11:38:23;4.57;;;1.13;;
28920;SDS011;16035;53.594;9.952;2022-08-01T11:40:28;5.70;;;1.35;;
28920;SDS011;16035;53.594;9.952;2022-08-01T11:42:29;7.18;;;0.95;;
28920;SDS011;16035;53.594;9.952;2022-08-01T11:44:29;4.23;;;1.23;;
28920;SDS011;16035;53.594;9.952;2022-08-01T11:51:24;3.42;;;0.95;;
28920;SDS011;16035;53.594;9.952;2022-08-01T11:53:24;7.32;;;1.65;;
28920;SDS011;16035;53.594;9.952;2022-08-01T11:55:26;3.38;;;1.13;;
28920;SDS011;16035;53.594;9.952;2022-08-01T11:57:29;3.33;;;0.85;;
28920;SDS011;16035;53.594;9.952;2022-08-01T11:59:44;5.57;;;1.25;;
28920;SDS011;16035;53.594;9.952;2022-08-01T12:01:47;6.55;;;1.90;;
28920;SDS011;16035;53.594;9.952;2022-08-01T12:03:54;4.57;;;0.80;;
28920;SDS011;16035;53.594;9.952;2022-08-01T12:05:55;6.13;;;0.82;;
28920;SDS011;16035;53.594;9.952;2022-08-01T12:07:57;2.05;;;0.52;;
28920;SDS011;16035;53.594;9.952;2022-08-01T12:12:09;4.47;;;1.17;;
28920;SDS011;16035;53.594;9.952;2022-08-01T12:16:15;6.65;;;1.33;;
28920;SDS011;16035;53.594;9.952;2022-08-01T12:18:16;2.30;;;0.80;;
28920;SDS011;16035;53.594;9.952;2022-08-01T12:20:20;5.47;;;1.02;;
28920;SDS011;16035;53.594;9.952;2022-08-01T12:22:22;2.42;;;0.80;;
28920;SDS011;16035;53.594;9.952;2022-08-01T12:24:23;4.82;;;1.02;;
28920;SDS011;16035;53.594;9.952;2022-08-01T12:26:38;3.50;;;0.93;;
28920;SDS011;16035;53.594;9.952;2022-08-01T12:28:41;4.80;;;1.35;;
28920;SDS011;16035;53.594;9.952;2022-08-01T12:30:42;4.57;;;1.07;;
28920;SDS011;16035;53.594;9.952;2022-08-01T12:32:44;1.77;;;0.70;;
28920;SDS011;16035;53.594;9.952;2022-08-01T12:34:46;5.60;;;1.00;;
28920;SDS011;16035;53.594;9.952;2022-08-01T12:36:46;5.17;;;1.00;;
28920;SDS011;16035;53.594;9.952;2022-08-01T12:38:52;3.57;;;0.97;;
28920;SDS011;16035;53.594;9.952;2022-08-01T12:40:52;2.30;;;0.70;;
28920;SDS011;16035;53.594;9.952;2022-08-01T12:42:57;3.80;;;0.80;;
28920;SDS011;16035;53.594;9.952;2022-08-01T12:45:02;4.82;;;1.13;;
28920;SDS011;16035;53.594;9.952;2022-08-01T12:47:03;3.08;;;0.65;;
28920;SDS011;16035;53.594;9.952;2022-08-01T12:49:05;3.67;;;0.80;;
28920;SDS011;16035;53.594;9.952;2022-08-01T12:51:05;2.83;;;0.90;;
28920;SDS011;16035;53.594;9.952;2022-08-01T12:53:09;3.55;;;1.15;;
28920;SDS011;16035;53.594;9.952;2022-08-01T12:55:20;7.70;;;0.90;;
28920;SDS011;16035;53.594;9.952;2022-08-01T12:57:22;4.30;;;0.88;;
28920;SDS011;16035;53.594;9.952;2022-08-01T12:59:24;3.72;;;0.77;;
28920;SDS011;16035;53.594;9.952;2022-08-01T13:01:26;7.00;;;1.10;;
28920;SDS011;16035;53.594;9.952;2022-08-01T13:03:27;2.35;;;0.80;;
28920;SDS011;16035;53.594;9.952;2022-08-01T13:05:28;2.70;;;1.07;;
28920;SDS011;16035;53.594;9.952;2022-08-01T13:07:47;4.55;;;0.98;;
28920;SDS011;16035;53.594;9.952;2022-08-01T13:09:49;6.55;;;0.75;;
28920;SDS011;16035;53.594;9.952;2022-08-01T13:11:50;8.43;;;0.90;;